Time;durP1;ratioP1;P1;durP2;ratioP2;P2;SDS_P1;SDS_P2;PMS_P1;PMS_P2;Temp;Humidity;BMP_temperature;BMP_pressure;BME280_temperature;BME280_humidity;BME280_pressure;Samples;Min_cycle;Max_cycle;Signal;HPM_P1;HPM_P2
2023/07/25 00:00:00;;;;;;;3.05;2.95;;;16.90;99.90;;;17.29;76.08;100627.66;5052230;28;20462;-68
2023/07/25 00:02:29;;;;;;;2.63;2.53;;;16.80;99.90;;;17.16;75.90;100626.34;5052461;28;20045;-68
2023/07/25 00:04:57;;;;;;;3.08;2.97;;;16.70;99.90;;;17.15;76.74;100629.94;5054045;28;20060;-68
2023/07/25 00:07:25;;;;;;;2.55;2.45;;;16.70;99.90;;;17.26;76.31;100629.56;5056489;28;20102;-68
2023/07/25 00:09:55;;;;;;;2.70;2.60;;;16.80;99.90;;;17.22;75.78;100630.59;5056467;28;20053;-68
2023/07/25 00:12:24;;;;;;;2.70;2.60;;;16.80;99.90;;;17.12;77.02;100624.72;5056425;28;20044;-68
2023/07/25 00:14:52;;;;;;;2.45;2.35;;;16.70;99.90;;;17.04;77.41;100618.75;5056122;28;20504;-68
2023/07/25 00:17:21;;;;;;;2.97;2.88;;;16.60;99.90;;;17.02;77.56;100634.84;5056086;28;20075;-68
2023/07/25 00:19:49;;;;;;;2.67;2.58;;;16.60;99.90;;;16.92;78.21;100620.06;5055997;28;20044;-68
2023/07/25 00:22:17;;;;;;;2.85;2.75;;;16.50;99.90;;;16.88;79.20;100612.19;5055985;28;20037;-68
2023/07/25 00:24:46;;;;;;;2.70;2.60;;;16.50;99.90;;;16.78;79.37;100608.94;5055861;28;20059;-68
2023/07/25 00:27:16;;;;;;;3.03;2.92;;;16.40;99.90;;;16.87;79.53;100603.31;5055899;28;20040;-68
2023/07/25 00:29:44;;;;;;;2.70;2.60;;;16.50;99.90;;;16.91;79.26;100606.75;5054200;28;20057;-68
2023/07/25 00:32:13;;;;;;;2.78;2.67;;;16.50;99.90;;;16.87;79.22;100597.97;5068163;28;20368;-68
2023/07/25 00:34:41;;;;;;;2.90;2.80;;;16.40;99.90;;;16.87;78.90;100623.81;5054591;28;20156;-68
2023/07/25 00:37:09;;;;;;;3.00;2.90;;;16.40;99.90;;;16.78;78.67;100594.75;5055472;28;20098;-68
2023/07/25 00:39:38;;;;;;;2.83;2.72;;;16.40;99.90;;;16.76;79.32;100602.78;5055991;28;20057;-68
2023/07/25 00:42:07;;;;;;;2.60;2.50;;;16.40;99.90;;;16.69;79.52;100598.59;5055915;28;20073;-68
2023/07/25 00:44:37;;;;;;;2.80;2.70;;;16.30;99.90;;;16.66;80.08;100592.50;5054496;28;20049;-68
2023/07/25 00:47:05;;;;;;;3.10;3.00;;;16.20;99.90;;;16.66;80.61;100598.72;5055793;28;20102;-68
2023/07/25 00:49:34;;;;;;;2.78;2.67;;;16.20;99.90;;;16.67;80.10;100595.09;5055721;28;20045;-68
2023/07/25 00:52:03;;;;;;;2.60;2.50;;;16.30;99.90;;;16.64;79.09;100603.22;5055694;28;20120;-68
2023/07/25 00:54:31;;;;;;;2.88;2.78;;;16.20;99.90;;;16.59;78.42;100596.31;5054347;28;20152;-68
2023/07/25 00:56:59;;;;;;;2.67;2.58;;;16.20;99.90;;;16.53;78.49;100594.69;5054309;28;20041;-68
2023/07/25 00:59:28;;;;;;;2.78;2.67;;;16.20;99.90;;;16.54;79.70;100592.88;5055263;28;20045;-68
2023/07/25 01:01:58;;;;;;;2.85;2.75;;;16.10;99.90;;;16.60;80.56;100596.25;5050628;28;20402;-68
2023/07/25 01:04:27;;;;;;;3.78;3.58;;;16.20;99.90;;;16.60;81.05;100603.38;5054125;28;20045;-68
2023/07/25 01:06:56;;;;;;;5.00;4.75;;;16.10;99.90;;;16.61;80.48;100597.09;5068797;28;20037;-68
2023/07/25 01:09:39;;;;;;;2.60;2.50;;;16.20;99.90;;;16.44;81.10;100586.06;5055207;28;20410;-68
2023/07/25 01:12:08;;;;;;;3.03;2.92;;;16.10;99.90;;;16.55;81.47;100591.97;5051446;28;20055;-68
2023/07/25 01:14:37;;;;;;;2.90;2.80;;;16.10;99.90;;;16.54;82.00;100596.44;5062569;28;20045;-68
2023/07/25 01:17:12;;;;;;;2.95;2.85;;;16.10;99.90;;;16.48;81.33;100596.63;5054942;28;20045;-68
2023/07/25 01:19:43;;;;;;;2.90;2.80;;;16.10;99.90;;;16.47;80.56;100586.88;5053885;28;20136;-68
2023/07/25 01:22:12;;;;;;;2.70;2.60;;;16.10;99.90;;;16.45;80.30;100593.16;5053389;28;20052;-68
2023/07/25 01:24:47;;;;;;;2.50;2.40;;;16.00;99.90;;;16.40;80.21;100589.75;5054985;28;20127;-68
2023/07/25 01:27:16;;;;;;;2.67;2.58;;;16.00;99.90;;;16.39;80.77;100591.56;5050700;28;20052;-68
2023/07/25 01:29:45;;;;;;;2.80;2.70;;;16.00;99.90;;;16.45;80.73;100585.16;5053672;28;20118;-68
2023/07/25 01:32:13;;;;;;;2.72;2.63;;;16.00;99.90;;;16.50;80.24;100586.78;5054906;28;20116;-68
2023/07/25 01:34:42;;;;;;;2.80;2.70;;;16.10;99.90;;;16.45;79.75;100583.38;5053577;28;20115;-68
2023/07/25 01:37:11;;;;;;;2.60;2.50;;;16.00;99.90;;;16.30;79.40;100567.81;5052417;28;20372;-67
2023/07/25 01:39:39;;;;;;;2.70;2.60;;;16.00;99.90;;;16.41;79.33;100592.41;5054858;28;20051;-68
2023/07/25 01:42:09;;;;;;;2.60;2.50;;;16.00;99.90;;;16.41;79.18;100587.06;5053449;28;20045;-68
2023/07/25 01:44:37;;;;;;;2.60;2.50;;;16.00;99.90;;;16.47;78.96;100581.53;5054428;28;20044;-68
2023/07/25 01:47:06;;;;;;;3.08;2.97;;;16.10;99.90;;;16.51;78.67;100580.50;5049709;28;20072;-68
2023/07/25 01:49:35;;;;;;;4.28;4.07;;;16.10;99.90;;;16.55;78.47;100589.31;5054577;28;20053;-69
2023/07/25 01:52:04;;;;;;;2.83;2.72;;;16.20;99.90;;;16.64;78.82;100583.66;5054568;28;20091;-69
2023/07/25 01:54:32;;;;;;;2.65;2.55;;;16.30;99.90;;;16.72;78.42;100582.47;5054254;28;20065;-68
2023/07/25 01:57:00;;;;;;;2.50;2.40;;;16.30;99.90;;;16.76;78.32;100586.75;5054476;28;20063;-68
2023/07/25 01:59:30;;;;;;;2.78;2.67;;;16.40;99.90;;;16.77;78.26;100585.84;5053074;28;20049;-68
2023/07/25 02:01:58;;;;;;;2.67;2.58;;;16.40;99.90;;;16.14;77.75;100466.03;5052527;28;20041;-68
2023/07/25 02:04:27;;;;;;;3.05;2.95;;;16.50;99.90;;;16.85;77.85;100578.47;5054303;28;20040;-68
2023/07/25 02:06:55;;;;;;;3.03;2.92;;;16.60;99.90;;;16.92;78.40;100579.97;5054041;28;20534;-68
2023/07/25 02:09:23;;;;;;;2.78;2.67;;;16.60;99.90;;;16.94;79.09;100575.44;5052911;28;20064;-68
2023/07/25 02:11:52;;;;;;;2.72;2.63;;;16.60;99.90;;;16.85;78.85;100567.78;5065863;28;20041;-68
2023/07/25 02:14:20;;;;;;;2.83;2.72;;;16.60;99.90;;;16.90;78.07;100579.16;5052789;28;20055;-68
2023/07/25 02:16:50;;;;;;;3.00;2.90;;;16.60;99.90;;;16.93;77.66;100578.19;5054125;28;20486;-68
2023/07/25 02:19:18;;;;;;;2.60;2.50;;;16.60;99.90;;;16.96;77.63;100575.38;5052801;28;20052;-68
2023/07/25 02:21:47;;;;;;;2.80;2.70;;;16.60;99.90;;;17.07;77.86;100573.25;5068213;28;20308;-68
2023/07/25 02:24:15;;;;;;;3.38;3.28;;;16.70;99.90;;;17.17;78.44;100578.19;5069221;28;20390;-68
2023/07/25 02:26:44;;;;;;;2.95;2.85;;;16.90;99.90;;;17.11;77.87;100580.22;5052211;28;20075;-68
2023/07/25 02:29:12;;;;;;;2.80;2.70;;;16.80;99.90;;;16.44;77.26;100479.28;5053600;28;20037;-68
2023/07/25 02:31:40;;;;;;;2.72;2.63;;;16.80;99.90;;;17.04;77.42;100584.91;5053826;28;20375;-68
2023/07/25 02:34:10;;;;;;;2.58;2.47;;;16.70;99.90;;;17.07;77.28;100579.44;5053725;28;20106;-68
2023/07/25 02:36:38;;;;;;;3.10;3.00;;;16.70;99.90;;;17.16;77.23;100572.91;5050097;28;20045;-68
2023/07/25 02:39:07;;;;;;;2.88;2.78;;;16.90;99.90;;;17.17;77.41;100575.50;5053286;28;20291;-68
2023/07/25 02:41:36;;;;;;;2.88;2.78;;;16.80;99.90;;;17.20;77.37;100573.66;5053659;28;20053;-68
2023/07/25 02:44:05;;;;;;;2.75;2.65;;;16.90;99.90;;;17.08;77.63;100549.13;5053401;28;20120;-68
2023/07/25 02:46:33;;;;;;;2.47;2.38;;;16.90;99.90;;;17.26;77.47;100578.78;5053386;28;20044;-68
2023/07/25 02:49:03;;;;;;;2.60;2.50;;;16.90;99.90;;;17.28;77.76;100583.16;5053500;28;20478;-68
2023/07/25 02:51:33;;;;;;;2.70;2.60;;;17.00;99.90;;;17.26;77.85;100578.78;5052221;28;20106;-68
2023/07/25 02:54:02;;;;;;;2.70;2.60;;;16.90;99.90;;;17.21;78.38;100575.41;5053190;28;20107;-68
2023/07/25 02:56:30;;;;;;;2.70;2.60;;;16.80;99.90;;;17.14;79.96;100577.41;5053130;28;20061;-68
2023/07/25 02:58:58;;;;;;;2.80;2.70;;;16.80;99.90;;;16.95;81.77;100574.53;5049476;28;20037;-68
2023/07/25 03:01:27;;;;;;;2.70;2.60;;;16.60;99.90;;;17.05;82.62;100575.09;5053324;28;20045;-69
2023/07/25 03:03:55;;;;;;;2.53;2.42;;;16.60;99.90;;;17.07;84.22;100578.59;5053003;28;20490;-68
2023/07/25 03:06:24;;;;;;;2.90;2.80;;;16.60;99.90;;;17.28;83.57;100582.28;5053251;28;20033;-68
2023/07/25 03:08:53;;;;;;;2.60;2.50;;;16.80;99.90;;;17.42;82.81;100574.63;5053204;28;20118;-68
2023/07/25 03:11:21;;;;;;;2.65;2.55;;;17.00;99.90;;;17.51;82.69;100574.31;5053220;28;20093;-68
2023/07/25 03:13:50;;;;;;;2.75;2.65;;;17.10;99.90;;;17.50;82.79;100561.88;5052795;28;20037;-68
2023/07/25 03:16:18;;;;;;;2.78;2.67;;;17.20;99.90;;;17.60;82.96;100579.31;5051745;28;20051;-68
2023/07/25 03:18:47;;;;;;;2.80;2.70;;;17.30;99.90;;;17.67;82.95;100572.81;5053076;28;20061;-68
2023/07/25 03:21:15;;;;;;;2.95;2.85;;;17.30;99.90;;;17.72;82.72;100571.69;5052922;28;20131;-68
2023/07/25 03:23:43;;;;;;;2.70;2.60;;;17.40;99.90;;;17.74;82.56;100574.31;5049127;28;20048;-68
2023/07/25 03:26:13;;;;;;;2.72;2.63;;;17.40;99.90;;;17.81;82.48;100575.81;5051592;28;20394;-68
2023/07/25 03:28:42;;;;;;;2.70;2.60;;;17.50;99.90;;;17.87;82.53;100578.25;5052909;28;20052;-68
2023/07/25 03:31:10;;;;;;;2.78;2.67;;;17.60;99.90;;;17.79;82.24;100556.25;5051627;28;20680;-68
2023/07/25 03:33:38;;;;;;;2.70;2.60;;;17.60;99.90;;;17.90;82.16;100565.63;5049999;28;20038;-68
2023/07/25 03:36:08;;;;;;;2.80;2.70;;;17.70;99.90;;;18.03;82.19;100571.38;5052726;28;20045;-68
2023/07/25 03:38:36;;;;;;;2.83;2.72;;;17.70;99.90;;;18.06;82.10;100573.06;5052309;28;20095;-68
2023/07/25 03:41:06;;;;;;;2.90;2.80;;;17.70;99.90;;;18.06;82.17;100571.22;5052668;28;20049;-68
2023/07/25 03:43:36;;;;;;;2.67;2.58;;;17.80;99.90;;;18.07;82.28;100570.31;5051435;28;20052;-69
2023/07/25 03:46:04;;;;;;;2.90;2.80;;;17.80;99.90;;;18.03;82.65;100574.94;5049076;28;20131;-68
2023/07/25 03:48:33;;;;;;;2.85;2.75;;;17.70;99.90;;;18.02;82.85;100569.66;5052612;28;20033;-68
2023/07/25 03:51:01;;;;;;;2.70;2.60;;;17.70;99.90;;;17.96;82.74;100572.56;5051342;28;20061;-68
2023/07/25 03:53:30;;;;;;;2.50;2.40;;;17.60;99.90;;;17.99;83.14;100583.13;5052606;28;20052;-69
2023/07/25 03:55:58;;;;;;;2.60;2.50;;;17.60;99.90;;;17.99;83.68;100584.00;5049443;28;20052;-68
2023/07/25 03:58:26;;;;;;;2.92;2.83;;;17.60;99.90;;;18.06;83.94;100579.25;5052637;28;20094;-69
2023/07/25 04:00:56;;;;;;;2.50;2.40;;;17.60;99.90;;;18.12;83.50;100581.69;5051042;28;20049;-69
2023/07/25 04:03:24;;;;;;;3.25;3.15;;;17.70;99.90;;;18.10;83.05;100578.22;5050946;28;20512;-68
2023/07/25 04:05:55;;;;;;;3.00;2.90;;;17.70;99.90;;;18.09;82.94;100579.16;5052517;28;20052;-68
2023/07/25 04:08:23;;;;;;;2.70;2.60;;;17.70;99.90;;;18.13;82.85;100579.91;5048576;28;20045;-68
2023/07/25 04:10:51;;;;;;;2.63;2.53;;;17.70;99.90;;;18.11;82.70;100584.44;5067853;28;20084;-68
2023/07/25 04:13:20;;;;;;;3.47;3.30;;;17.70;99.90;;;18.12;81.94;100584.38;5051162;28;20482;-68
2023/07/25 04:15:48;;;;;;;2.40;2.30;;;17.70;99.90;;;17.97;81.90;100583.19;5052387;28;20106;-68
2023/07/25 04:18:18;;;;;;;2.63;2.53;;;17.60;99.90;;;18.15;81.85;100600.34;5052363;28;20052;-68
2023/07/25 04:20:46;;;;;;;2.60;2.50;;;17.70;99.90;;;18.07;81.31;100596.22;5049857;28;20060;-69
2023/07/25 04:23:15;;;;;;;3.10;3.00;;;17.70;99.90;;;18.05;80.73;100593.59;5052060;28;20045;-68
2023/07/25 04:25:44;;;;;;;2.67;2.58;;;17.70;99.90;;;17.99;80.80;100591.16;5052194;28;20127;-69
2023/07/25 04:28:12;;;;;;;5.80;5.40;;;17.60;99.90;;;18.05;80.42;100596.28;5052219;28;20413;-70
2023/07/25 04:30:41;;;;;;;2.60;2.50;;;17.70;99.90;;;17.91;79.74;100596.81;5052389;28;20037;-69
2023/07/25 04:33:09;;;;;;;2.75;2.65;;;17.60;99.90;;;18.05;79.21;100606.97;5047037;28;20498;-69
2023/07/25 04:35:39;;;;;;;2.63;2.53;;;17.70;99.90;;;18.09;78.24;100605.94;5044398;28;20041;-69
2023/07/25 04:38:07;;;;;;;3.05;2.95;;;17.70;99.90;;;18.09;77.87;100599.69;5067389;28;20085;-68
2023/07/25 04:40:35;;;;;;;2.83;2.72;;;17.80;99.90;;;17.98;77.32;100603.66;5051896;28;20846;-68
2023/07/25 04:43:04;;;;;;;2.90;2.80;;;17.70;99.90;;;18.16;76.51;100601.19;5049142;28;20077;-68
2023/07/25 04:45:32;;;;;;;2.65;2.55;;;17.80;99.90;;;18.15;76.07;100586.97;5067507;28;20065;-68
2023/07/25 04:48:00;;;;;;;2.97;2.88;;;18.00;99.90;;;18.08;76.15;100606.00;5050664;28;20053;-69
2023/07/25 04:50:29;;;;;;;8.52;5.00;;;17.80;99.90;;;18.10;75.45;100615.69;5052549;28;20394;-68
2023/07/25 04:52:59;;;;;;;2.80;2.70;;;17.80;99.90;;;18.09;75.33;100611.28;5054571;28;20049;-68
2023/07/25 04:55:27;;;;;;;2.67;2.57;;;17.80;99.90;;;17.99;76.03;100607.22;5055862;28;20127;-68
2023/07/25 04:57:56;;;;;;;2.70;2.60;;;17.70;99.90;;;17.95;76.17;100610.94;5050810;28;20323;-69
2023/07/25 05:00:24;;;;;;;2.65;2.55;;;17.70;99.90;;;17.64;77.79;100618.38;5054220;28;20102;-69
2023/07/25 05:02:54;;;;;;;2.97;2.88;;;17.40;99.90;;;17.57;77.86;100607.06;5051996;28;20461;-69
2023/07/25 05:05:23;;;;;;;2.75;2.65;;;17.20;99.90;;;17.90;76.23;100600.41;5055255;28;20106;-68
2023/07/25 05:07:51;;;;;;;2.70;2.60;;;17.50;99.90;;;18.01;76.00;100608.91;5055387;28;20094;-68
2023/07/25 05:10:21;;;;;;;2.90;2.80;;;17.60;99.90;;;17.87;75.65;100615.72;5055149;28;20076;-68
2023/07/25 05:12:49;;;;;;;2.60;2.50;;;17.50;99.90;;;18.01;74.89;100611.59;5055778;28;20371;-69
2023/07/25 05:15:18;;;;;;;3.35;3.25;;;17.70;99.90;;;18.05;74.35;100612.34;5055558;28;20327;-68
2023/07/25 05:17:46;;;;;;;2.85;2.75;;;17.70;99.90;;;17.96;74.54;100613.56;5055449;28;20049;-68
2023/07/25 05:20:14;;;;;;;3.05;2.95;;;17.60;99.90;;;17.82;75.15;100617.69;5055073;28;20037;-68
2023/07/25 05:22:43;;;;;;;2.78;2.67;;;17.50;99.90;;;17.91;74.77;100604.84;5051382;28;20053;-68
2023/07/25 05:25:11;;;;;;;2.90;2.80;;;17.60;99.90;;;17.99;74.55;100605.41;5054899;28;20065;-69
2023/07/25 05:27:41;;;;;;;2.90;2.80;;;17.70;99.90;;;18.13;73.47;100610.25;5054765;28;20073;-68
2023/07/25 05:30:10;;;;;;;3.00;2.90;;;17.80;99.90;;;18.19;73.10;100612.69;5054772;28;20490;-68
2023/07/25 05:32:39;;;;;;;2.80;2.70;;;17.90;99.90;;;18.28;72.22;100614.97;5054629;28;20665;-68
2023/07/25 05:35:08;;;;;;;2.90;2.80;;;18.00;99.90;;;18.36;71.40;100614.66;5054686;28;20045;-68
2023/07/25 05:37:37;;;;;;;2.80;2.70;;;18.10;99.90;;;18.18;71.56;100591.28;5054549;28;20111;-68
2023/07/25 05:40:07;;;;;;;3.05;2.95;;;18.10;99.90;;;18.44;71.99;100607.22;5054848;28;20040;-69
2023/07/25 05:42:35;;;;;;;2.70;2.60;;;18.10;99.90;;;18.47;71.29;100610.66;5051123;28;20099;-68
2023/07/25 05:45:07;;;;;;;2.50;2.40;;;18.20;99.90;;;18.49;71.39;100611.47;5050825;28;20041;-68
2023/07/25 05:47:35;;;;;;;2.88;2.78;;;18.20;99.90;;;18.52;71.61;100614.03;5054726;28;20065;-68
2023/07/25 05:50:04;;;;;;;2.80;2.70;;;18.20;99.90;;;18.53;71.94;100617.56;5054607;28;20049;-69
2023/07/25 05:52:32;;;;;;;2.80;2.70;;;18.20;99.90;;;18.64;71.82;100623.38;5054666;28;20067;-69
2023/07/25 05:55:01;;;;;;;2.50;2.40;;;18.30;99.90;;;18.70;71.90;100618.59;5054385;28;20067;-69
2023/07/25 05:57:29;;;;;;;2.83;2.72;;;18.40;99.90;;;18.83;70.70;100627.88;5054143;28;20559;-68
2023/07/25 05:59:57;;;;;;;2.60;2.50;;;18.50;99.90;;;19.02;70.33;100624.44;5054209;28;20053;-69
2023/07/25 06:02:27;;;;;;;2.80;2.70;;;18.70;99.90;;;19.13;68.96;100630.19;5053283;28;20507;-69
2023/07/25 06:04:55;;;;;;;2.70;2.60;;;18.90;99.90;;;19.13;68.96;100631.06;5054536;28;20045;-68
2023/07/25 06:07:24;;;;;;;3.08;2.97;;;18.80;99.90;;;18.83;68.66;100627.88;5050230;28;20049;-69
2023/07/25 06:09:52;;;;;;;2.60;2.50;;;18.60;99.90;;;19.14;69.07;100634.63;5054243;28;20120;-69
2023/07/25 06:12:20;;;;;;;2.88;2.78;;;18.80;99.90;;;19.36;67.53;100630.09;5054242;28;20041;-69
2023/07/25 06:14:49;;;;;;;2.67;2.58;;;19.00;99.90;;;19.49;66.89;100637.53;5053983;28;20395;-69
2023/07/25 06:17:17;;;;;;;3.25;3.15;;;19.20;99.90;;;19.65;66.51;100633.22;5053767;28;20053;-68
2023/07/25 06:19:47;;;;;;;2.75;2.65;;;19.40;99.90;;;19.59;65.69;100635.31;5053752;28;20432;-68
2023/07/25 06:22:16;;;;;;;3.05;2.95;;;19.30;99.90;;;19.80;66.53;100643.25;5053825;28;20049;-68
2023/07/25 06:24:45;;;;;;;2.95;2.85;;;19.50;99.90;;;19.96;65.32;100639.84;5053975;28;20041;-68
2023/07/25 06:27:13;;;;;;;2.30;2.20;;;19.60;99.90;;;20.17;65.03;100644.25;5053573;28;20071;-68
2023/07/25 06:29:41;;;;;;;2.83;2.72;;;19.90;99.90;;;20.23;63.47;100639.47;5054059;28;20045;-69
2023/07/25 06:32:10;;;;;;;2.80;2.70;;;20.00;99.90;;;20.16;63.38;100638.00;5049751;28;20123;-69
2023/07/25 06:34:38;;;;;;;2.45;2.35;;;20.00;99.90;;;20.24;63.50;100641.22;5054185;28;20215;-69
2023/07/25 06:37:08;;;;;;;2.45;2.35;;;20.00;99.90;;;20.30;61.63;100629.31;5053304;28;20049;-68
2023/07/25 06:39:37;;;;;;;2.78;2.67;;;20.10;99.90;;;20.35;61.38;100638.88;5053805;28;20053;-68
2023/07/25 06:42:06;;;;;;;2.60;2.50;;;20.10;99.90;;;20.33;60.80;100638.09;5053365;28;20127;-69
2023/07/25 06:44:36;;;;;;;2.75;2.65;;;20.10;99.90;;;20.39;59.75;100640.50;5052370;28;20044;-69
2023/07/25 06:47:05;;;;;;;2.67;2.58;;;20.10;99.90;;;20.46;59.40;100667.94;5051887;28;20045;-69
2023/07/25 06:49:33;;;;;;;2.80;2.70;;;20.20;99.90;;;20.42;58.79;100634.09;5053249;28;20060;-69
2023/07/25 06:52:02;;;;;;;2.60;2.50;;;20.20;99.90;;;20.18;59.50;100648.66;5053509;28;20131;-68
2023/07/25 06:54:31;;;;;;;2.80;2.70;;;20.00;99.90;;;20.28;59.43;100634.78;5049505;28;20048;-70
2023/07/25 06:57:00;;;;;;;4.07;3.87;;;20.10;99.90;;;19.92;59.87;100646.34;5052967;28;20094;-69
2023/07/25 06:59:29;;;;;;;2.50;2.40;;;19.70;99.90;;;20.00;60.19;100647.72;5053490;28;20107;-70
2023/07/25 07:01:58;;;;;;;2.95;2.85;;;19.80;99.90;;;20.12;60.69;100651.63;5051932;28;20517;-68
2023/07/25 07:04:27;;;;;;;2.50;2.40;;;19.80;99.90;;;20.25;60.72;100651.03;5050739;28;20510;-70
2023/07/25 07:06:55;;;;;;;2.58;2.47;;;20.00;99.90;;;20.43;60.57;100647.47;5052748;28;20090;-70
2023/07/25 07:09:24;;;;;;;2.60;2.50;;;20.20;99.90;;;20.49;60.45;100652.53;5052912;28;20052;-67
2023/07/25 07:11:55;;;;;;;2.80;2.70;;;20.30;99.90;;;20.51;60.34;100655.16;5052720;28;20053;-66
2023/07/25 07:14:23;;;;;;;;;;;20.30;99.90;;;20.55;59.27;100664.81;5049666;28;20059;-67
2023/07/25 07:16:52;;;;;;;2.67;2.58;;;20.40;99.90;;;19.90;59.71;100659.81;5053295;28;19960;-69
2023/07/25 07:19:20;;;;;;;3.05;2.95;;;19.90;99.90;;;20.10;59.44;100654.41;5052987;28;20049;-68
2023/07/25 07:21:48;;;;;;;2.70;2.60;;;19.90;99.90;;;19.81;60.76;100654.88;5052692;28;20037;-67
2023/07/25 07:24:17;;;;;;;3.45;2.92;;;19.80;99.90;;;19.88;62.40;100642.06;5052593;28;20068;-68
2023/07/25 07:26:45;;;;;;;2.90;2.80;;;19.70;99.90;;;19.98;63.54;100649.59;5052584;28;20049;-68
2023/07/25 07:29:15;;;;;;;3.85;3.58;;;19.70;99.90;;;20.07;63.42;100643.81;5050470;28;20570;-67
2023/07/25 07:31:43;;;;;;;11.87;4.33;;;19.80;99.90;;;19.94;63.56;100649.81;5051478;28;20060;-67
2023/07/25 07:34:14;;;;;;;2.75;2.65;;;19.70;99.90;;;20.14;64.08;100647.94;5052480;28;20095;-69
2023/07/25 07:36:43;;;;;;;2.90;2.80;;;19.90;99.90;;;20.28;63.16;100655.38;5048604;28;20123;-68
2023/07/25 07:39:11;;;;;;;4.18;3.97;;;20.00;99.90;;;20.38;62.93;100648.63;5051093;28;20049;-70
2023/07/25 07:41:40;;;;;;;2.75;2.65;;;20.10;99.90;;;20.41;62.10;100649.34;5051428;28;20102;-69
2023/07/25 07:44:08;;;;;;;3.00;2.90;;;20.20;99.90;;;20.33;61.53;100651.53;5049154;28;20564;-68
2023/07/25 07:46:38;;;;;;;3.03;2.92;;;20.20;99.90;;;20.65;61.74;100648.13;5052287;28;20075;-68
2023/07/25 07:49:06;;;;;;;2.83;2.72;;;20.40;99.90;;;20.89;61.09;100658.63;5052475;28;20478;-68
2023/07/25 07:51:35;;;;;;;2.88;2.78;;;20.70;99.90;;;21.11;60.07;100659.31;5052211;28;20045;-69
2023/07/25 07:54:04;;;;;;;2.80;2.70;;;20.90;99.90;;;21.30;59.84;100657.44;5052066;28;20056;-68
2023/07/25 07:56:32;;;;;;;2.60;2.50;;;21.10;99.90;;;21.30;57.91;100641.28;5052479;28;20079;-69
2023/07/25 07:59:01;;;;;;;2.83;2.72;;;21.30;99.90;;;21.56;57.96;100665.03;5052265;28;20131;-69
2023/07/25 08:01:29;;;;;;;2.60;2.50;;;21.40;99.90;;;21.49;56.78;100639.38;5049073;28;20065;-67
2023/07/25 08:04:00;;;;;;;2.53;2.42;;;21.40;99.90;;;21.86;56.51;100668.81;5052132;28;20042;-68
2023/07/25 08:06:29;;;;;;;2.75;2.65;;;21.60;99.90;;;21.82;54.73;100661.84;5052094;28;20052;-67
2023/07/25 08:08:57;;;;;;;2.30;2.20;;;21.70;99.90;;;21.81;54.33;100670.88;5050982;28;20075;-67
2023/07/25 08:11:26;;;;;;;2.67;2.58;;;21.70;99.90;;;21.40;54.06;100672.16;5052080;28;20414;-67
2023/07/25 08:13:54;;;;;;;3.00;2.90;;;21.40;99.90;;;21.35;53.57;100677.75;5052085;28;20387;-67
2023/07/25 08:16:23;;;;;;;2.53;2.42;;;21.20;99.90;;;21.17;53.50;100678.72;5052042;28;20120;-68
2023/07/25 08:18:53;;;;;;;2.92;2.83;;;21.10;99.90;;;21.05;53.87;100683.84;5052171;28;20466;-65
2023/07/25 08:21:22;;;;;;;2.42;2.33;;;20.90;99.90;;;20.83;54.90;100684.00;5052006;28;20045;-67
2023/07/25 08:23:51;;;;;;;2.70;2.60;;;20.70;99.90;;;20.88;55.29;100683.78;5048846;28;20071;-65
2023/07/25 08:26:19;;;;;;;2.88;2.78;;;20.70;99.90;;;20.97;54.99;100677.94;5054560;28;20287;-65
2023/07/25 08:28:48;;;;;;;2.85;2.75;;;20.80;99.90;;;21.12;55.43;100685.25;5055867;28;20053;-65
2023/07/25 08:31:16;;;;;;;2.60;2.50;;;20.90;99.90;;;21.23;55.21;100681.13;5056360;28;20483;-66
2023/07/25 08:33:44;;;;;;;83.82;30.88;;;21.00;99.90;;;21.44;54.99;100689.88;5055674;28;20045;-66
2023/07/25 08:36:13;;;;;;;2.88;2.78;;;21.30;99.90;;;21.65;55.12;100695.97;5056023;28;20402;-65
2023/07/25 08:38:42;;;;;;;2.70;2.60;;;21.50;99.90;;;21.46;54.33;100696.06;5055985;28;20052;-61
2023/07/25 08:41:13;;;;;;;2.60;2.50;;;21.30;99.90;;;21.05;54.12;100682.03;5056199;28;20055;-65
2023/07/25 08:43:43;;;;;;;2.92;2.83;;;21.00;99.90;;;20.87;55.44;100700.84;5055729;28;20091;-65
2023/07/25 08:46:13;;;;;;;3.13;3.03;;;20.70;99.90;;;20.82;55.29;100678.72;5052503;28;20078;-66
2023/07/25 08:48:43;;;;;;;3.13;3.03;;;20.70;99.90;;;20.71;56.27;100707.94;5055578;28;20072;-61
2023/07/25 08:51:19;;;;;;;3.20;3.10;;;20.60;99.90;;;20.62;55.75;100703.88;5055491;28;20098;-67
2023/07/25 08:54:02;;;;;;;3.33;3.22;;;20.40;99.90;;;20.60;55.84;100705.75;5055454;28;20406;-66
2023/07/25 08:56:31;;;;;;;2.65;2.55;;;20.40;99.90;;;20.58;56.05;100711.22;5051723;28;20045;-62
2023/07/25 08:59:00;;;;;;;2.60;2.50;;;20.40;99.90;;;20.86;56.30;100700.00;5055330;28;20045;-64
2023/07/25 09:01:29;;;;;;;3.00;2.90;;;20.70;99.90;;;21.16;55.55;100716.44;5055235;28;20049;-64
2023/07/25 09:03:59;;;;;;;2.58;2.47;;;20.90;99.90;;;21.44;55.50;100715.00;5055490;28;20476;-64
2023/07/25 09:06:29;;;;;;;12.95;6.45;;;21.20;99.90;;;21.72;54.76;100714.41;5055506;28;20048;-64
2023/07/25 09:08:59;;;;;;;2.58;2.47;;;21.50;99.90;;;21.61;53.09;100714.09;5062459;28;20091;-64
2023/07/25 09:11:28;;;;;;;2.78;2.67;;;21.50;99.90;;;21.75;52.64;100725.03;5051776;28;20052;-63
2023/07/25 09:13:58;;;;;;;2.40;2.30;;;21.60;99.90;;;21.26;53.64;100721.31;5054271;28;20491;-64
2023/07/25 09:16:28;;;;;;;2.78;2.67;;;21.20;99.90;;;21.30;54.53;100733.66;5055926;28;20033;-65
2023/07/25 09:18:56;;;;;;;2.95;2.85;;;21.10;99.90;;;21.18;54.31;100725.31;5053961;28;20391;-65
2023/07/25 09:21:24;;;;;;;3.00;2.90;;;21.00;99.90;;;21.14;53.39;100721.91;5054891;28;20556;-68
2023/07/25 09:23:54;;;;;;;2.45;2.35;;;20.90;99.90;;;21.05;54.21;100732.25;5055240;28;20045;-66
2023/07/25 09:26:26;;;;;;;2.42;2.33;;;20.90;99.90;;;21.12;54.69;100739.06;5055214;28;20048;-65
2023/07/25 09:28:57;;;;;;;2.70;2.60;;;20.90;99.90;;;21.24;54.05;100741.16;5051059;28;20052;-65
2023/07/25 09:31:29;;;;;;;2.70;2.60;;;21.10;99.90;;;21.42;54.44;100733.03;5054852;28;20045;-65
2023/07/25 09:33:58;;;;;;;2.78;2.67;;;21.20;99.90;;;21.58;53.05;100743.00;5054677;28;20405;-66
2023/07/25 09:36:31;;;;;;;3.15;3.05;;;21.50;99.90;;;21.45;52.52;100749.03;5054464;28;20448;-68
2023/07/25 09:38:59;;;;;;;2.65;2.55;;;21.30;99.90;;;21.28;53.07;100757.06;5053097;28;20456;-66
2023/07/25 09:41:29;;;;;;;2.63;2.53;;;21.10;99.90;;;21.03;54.43;100761.06;5054767;28;20049;-65
2023/07/25 09:44:05;;;;;;;2.90;2.80;;;20.80;99.90;;;21.13;53.74;100751.59;5051025;28;20098;-62
2023/07/25 09:46:33;;;;;;;2.40;2.30;;;20.90;99.90;;;21.00;55.47;100755.81;5054974;28;20045;-66
2023/07/25 09:49:02;;;;;;;2.88;2.78;;;20.80;99.90;;;20.68;55.54;100793.19;5051723;28;20447;-62
2023/07/25 09:51:31;;;;;;;2.75;2.65;;;20.50;99.90;;;20.61;56.12;100769.34;5069959;28;20057;-66
2023/07/25 09:53:59;;;;;;;2.50;2.40;;;20.40;99.90;;;20.26;56.47;100773.66;5054196;28;20041;-63
2023/07/25 09:56:29;;;;;;;3.20;3.10;;;20.10;99.90;;;20.35;55.52;100773.22;5054668;28;20056;-67
2023/07/25 09:58:58;;;;;;;2.97;2.83;;;20.10;99.90;;;20.32;55.46;100770.72;5054190;28;20041;-68
2023/07/25 10:01:30;;;;;;;2.90;2.80;;;20.10;99.90;;;20.32;55.50;100767.13;5050560;28;20290;-68
2023/07/25 10:03:59;;;;;;;3.00;2.90;;;20.10;99.90;;;20.49;56.03;100775.28;5054666;28;20049;-69
2023/07/25 10:06:28;;;;;;;2.90;2.80;;;20.30;99.90;;;20.50;55.93;100772.53;5054353;28;20041;-66
2023/07/25 10:08:58;;;;;;;3.42;3.33;;;20.30;99.90;;;20.57;56.00;100779.38;5061271;28;20049;-65
2023/07/25 10:11:27;;;;;;;3.35;3.25;;;20.40;99.90;;;20.58;55.65;100775.72;5053865;28;20045;-66
2023/07/25 10:13:56;;;;;;;2.80;2.70;;;20.40;99.90;;;20.41;55.98;100778.34;5053811;28;20122;-65
2023/07/25 10:16:25;;;;;;;2.85;2.75;;;20.30;99.90;;;20.62;55.85;100771.06;5054034;28;20041;-65
2023/07/25 10:18:54;;;;;;;2.60;2.50;;;20.40;99.90;;;20.88;55.92;100783.28;5052742;28;20053;-65